createdAt,value
2024-03-11T00:00:10.865Z,94045.22
2024-03-11T00:02:37.740Z,94030.75
2024-03-11T00:05:04.727Z,94041.78
2024-03-11T00:07:35.344Z,94047.34
2024-03-11T00:10:02.211Z,94052.84
2024-03-11T00:12:30.743Z,94040.38
2024-03-11T00:14:58.901Z,94058.03
2024-03-11T00:17:25.656Z,94067.78
2024-03-11T00:19:52.515Z,94064.50
2024-03-11T00:22:19.448Z,94076.88
2024-03-11T00:24:46.080Z,94067.47
2024-03-11T00:27:12.753Z,94076.22
2024-03-11T00:29:39.475Z,94060.22
2024-03-11T00:32:10.584Z,94069.19
2024-03-11T00:34:37.328Z,94076.75
2024-03-11T00:37:04.021Z,94070.78
2024-03-11T00:39:31.918Z,94080.16
2024-03-11T00:41:58.779Z,94082.50
2024-03-11T00:44:25.702Z,94092.50
2024-03-11T00:46:52.485Z,94089.94
2024-03-11T00:49:20.985Z,94095.88
2024-03-11T00:51:47.851Z,94095.69
2024-03-11T00:54:14.562Z,94095.03
2024-03-11T00:56:41.410Z,94104.59
2024-03-11T00:59:08.330Z,94095.91
2024-03-11T01:01:35.156Z,94104.28
2024-03-11T01:04:01.840Z,94101.97
2024-03-11T01:06:29.347Z,94109.03
2024-03-11T01:08:58.925Z,94098.53
2024-03-11T01:11:26.380Z,94098.09
2024-03-11T01:13:53.290Z,94109.66
2024-03-11T01:16:20.038Z,94113.63
2024-03-11T01:18:47.008Z,94113.75
2024-03-11T01:21:19.048Z,94112.16
2024-03-11T01:23:48.720Z,94118.47
2024-03-11T01:26:15.808Z,94115.84
2024-03-11T01:28:43.000Z,94113.44
2024-03-11T01:31:12.072Z,94107.16
2024-03-11T01:33:38.879Z,94119.34
2024-03-11T01:36:05.870Z,94120.13
2024-03-11T01:38:32.522Z,94116.72
2024-03-11T01:40:59.427Z,94136.22
2024-03-11T01:43:26.234Z,94124.16
2024-03-11T01:45:53.101Z,94132.34
2024-03-11T01:48:20.723Z,94134.19
2024-03-11T01:50:49.416Z,94131.63
2024-03-11T01:53:16.918Z,94130.31
2024-03-11T01:55:47.637Z,94145.56
2024-03-11T01:58:15.400Z,94141.91
2024-03-11T02:00:43.084Z,94140.31
2024-03-11T02:03:09.990Z,94145.06
2024-03-11T02:05:42.279Z,94143.25
2024-03-11T02:08:09.885Z,94150.06
2024-03-11T02:10:37.954Z,94145.09
2024-03-11T02:13:05.616Z,94147.47
2024-03-11T02:15:32.522Z,94153.00
2024-03-11T02:18:00.056Z,94159.31
2024-03-11T02:20:28.544Z,94157.22
2024-03-11T02:22:57.295Z,94162.22
2024-03-11T02:25:29.204Z,94160.13
2024-03-11T02:27:59.234Z,94160.38
2024-03-11T02:30:26.385Z,94166.66
2024-03-11T02:32:53.294Z,94163.25
2024-03-11T02:35:20.276Z,94166.94
2024-03-11T02:37:48.240Z,94171.94
2024-03-11T02:40:20.012Z,94169.34
2024-03-11T02:42:47.105Z,94160.38
2024-03-11T02:45:15.772Z,94171.19
2024-03-11T02:47:43.652Z,94175.91
2024-03-11T02:50:11.402Z,94179.56
2024-03-11T02:52:38.593Z,94185.63
2024-03-11T02:55:07.406Z,94184.03
2024-03-11T02:57:34.297Z,94194.84
2024-03-11T03:00:01.251Z,94196.94
2024-03-11T03:02:28.644Z,94192.72
2024-03-11T03:04:57.489Z,94178.78
2024-03-11T03:07:27.768Z,94204.31
2024-03-11T03:09:54.707Z,94215.59
2024-03-11T03:12:21.883Z,94218.09
2024-03-11T03:14:49.311Z,94228.13
2024-03-11T03:17:16.390Z,94231.84
2024-03-11T03:19:43.114Z,94232.47
2024-03-11T03:22:09.823Z,94240.13
2024-03-11T03:24:36.557Z,94256.25
2024-03-11T03:27:03.382Z,94247.34
2024-03-11T03:29:33.270Z,94255.50
2024-03-11T03:32:00.468Z,94258.13
2024-03-11T03:34:27.160Z,94261.53
2024-03-11T03:36:55.419Z,94262.84
2024-03-11T03:39:22.676Z,94274.41
2024-03-11T03:41:51.612Z,94273.34
2024-03-11T03:44:18.357Z,94267.00
2024-03-11T03:46:45.015Z,94263.50
2024-03-11T03:49:11.793Z,94271.13
2024-03-11T03:51:38.420Z,94269.53
2024-03-11T03:54:05.455Z,94273.50
2024-03-11T03:56:32.520Z,94262.88
2024-03-11T03:58:59.270Z,94257.34
2024-03-11T04:01:26.037Z,94270.25
2024-03-11T04:03:52.696Z,94261.06
2024-03-11T04:06:19.414Z,94280.25
2024-03-11T04:08:46.143Z,94289.97
2024-03-11T04:11:13.070Z,94282.09
2024-03-11T04:13:41.300Z,94269.56
2024-03-11T04:16:08.899Z,94293.22
2024-03-11T04:18:35.855Z,94301.09
2024-03-11T04:21:03.109Z,94288.88
2024-03-11T04:23:30.435Z,94293.84
2024-03-11T04:25:58.265Z,94289.38
2024-03-11T04:28:26.245Z,94293.09
2024-03-11T04:30:53.017Z,94294.41
2024-03-11T04:33:19.702Z,94295.34
2024-03-11T04:35:47.572Z,94299.50
2024-03-11T04:38:14.731Z,94299.31
2024-03-11T04:40:45.265Z,94300.13
2024-03-11T04:43:12.376Z,94307.00
2024-03-11T04:45:39.434Z,94319.34
2024-03-11T04:48:07.943Z,94332.47
2024-03-11T04:50:39.551Z,94327.72
2024-03-11T04:53:08.915Z,94336.38
2024-03-11T04:55:38.063Z,94339.47
2024-03-11T04:58:05.564Z,94324.50
2024-03-11T05:00:32.608Z,94341.56
2024-03-11T05:03:01.203Z,94341.78
2024-03-11T05:05:28.982Z,94346.53
2024-03-11T05:07:55.858Z,94350.84
2024-03-11T05:10:22.772Z,94347.03
2024-03-11T05:12:51.124Z,94357.09
2024-03-11T05:15:19.000Z,94357.09
2024-03-11T05:17:46.370Z,94353.69
2024-03-11T05:20:16.411Z,94350.06
2024-03-11T05:22:44.513Z,94365.13
2024-03-11T05:25:16.276Z,94354.59
2024-03-11T05:27:44.712Z,94355.63
2024-03-11T05:30:11.790Z,94360.13
2024-03-11T05:32:38.521Z,94368.53
2024-03-11T05:35:06.106Z,94371.16
2024-03-11T05:37:34.240Z,94367.50
2024-03-11T05:40:01.224Z,94367.25
2024-03-11T05:42:28.314Z,94370.13
2024-03-11T05:44:57.433Z,94377.22
2024-03-11T05:47:27.688Z,94367.03
2024-03-11T05:49:55.511Z,94384.41
2024-03-11T05:52:26.530Z,94381.94
2024-03-11T05:54:54.936Z,94382.72
2024-03-11T05:57:31.161Z,94372.44
2024-03-11T05:59:58.326Z,94370.88
2024-03-11T06:02:25.378Z,94373.84
2024-03-11T06:04:52.436Z,94377.91
2024-03-11T06:07:24.505Z,94369.69
2024-03-11T06:09:52.532Z,94372.56
2024-03-11T06:12:22.772Z,94366.28
2024-03-11T06:14:50.664Z,94372.31
2024-03-11T06:17:18.181Z,94376.81
2024-03-11T06:19:46.445Z,94377.88
2024-03-11T06:22:13.607Z,94381.69
2024-03-11T06:24:40.475Z,94383.44
2024-03-11T06:27:07.565Z,94384.63
2024-03-11T06:29:35.425Z,94382.28
2024-03-11T06:32:07.308Z,94388.50
2024-03-11T06:34:36.522Z,94388.44
2024-03-11T06:37:03.897Z,94388.28
2024-03-11T06:39:33.649Z,94382.56
2024-03-11T06:42:02.268Z,94381.66
2024-03-11T06:44:34.040Z,94399.16
2024-03-11T06:47:09.991Z,94404.69
2024-03-11T06:49:38.127Z,94416.13
2024-03-11T06:52:08.634Z,94415.50
2024-03-11T06:54:35.748Z,94422.44
2024-03-11T06:57:02.926Z,94427.78
2024-03-11T06:59:30.431Z,94425.66
2024-03-11T07:01:58.303Z,94426.63
2024-03-11T07:04:25.100Z,94425.88
2024-03-11T07:06:52.261Z,94437.78
2024-03-11T07:09:20.440Z,94442.56
2024-03-11T07:11:47.235Z,94437.09
2024-03-11T07:14:15.788Z,94451.88
2024-03-11T07:16:44.581Z,94453.88
2024-03-11T07:19:12.379Z,94466.38
2024-03-11T07:21:40.754Z,94471.22
2024-03-11T07:24:08.099Z,94473.09
2024-03-11T07:26:34.964Z,94480.25
2024-03-11T07:29:01.813Z,94465.41
2024-03-11T07:31:28.827Z,94471.00
2024-03-11T07:33:55.864Z,94483.97
2024-03-11T07:36:23.355Z,94490.28
2024-03-11T07:38:50.448Z,94495.03
2024-03-11T07:41:17.659Z,94485.97
2024-03-11T07:43:45.210Z,94489.31
2024-03-11T07:46:12.967Z,94494.94
2024-03-11T07:48:40.909Z,94501.25
2024-03-11T07:51:09.658Z,94506.03
2024-03-11T07:53:36.521Z,94521.31
2024-03-11T07:56:05.596Z,94510.19
2024-03-11T07:58:36.183Z,94529.47
2024-03-11T08:01:03.844Z,94534.03
2024-03-11T08:03:31.354Z,94538.25
2024-03-11T08:06:00.228Z,94539.53
2024-03-11T08:08:27.837Z,94541.88
2024-03-11T08:10:55.617Z,94534.94
2024-03-11T08:13:22.738Z,94546.69
2024-03-11T08:15:50.686Z,94541.75
2024-03-11T08:18:18.313Z,94539.16
2024-03-11T08:20:45.429Z,94540.00
2024-03-11T08:23:12.540Z,94556.66
2024-03-11T08:25:46.209Z,94550.91
2024-03-11T08:28:17.086Z,94554.84
2024-03-11T08:30:44.681Z,94555.63
2024-03-11T08:33:14.004Z,94553.47
2024-03-11T08:35:42.143Z,94551.91
2024-03-11T08:38:09.262Z,94547.44
2024-03-11T08:40:36.679Z,94538.34
2024-03-11T08:43:03.633Z,94552.03
2024-03-11T08:45:33.950Z,94539.84
2024-03-11T08:48:01.102Z,94550.97
2024-03-11T08:50:28.090Z,94539.50
2024-03-11T08:52:55.080Z,94538.59
2024-03-11T08:55:22.314Z,94540.25
2024-03-11T08:57:52.022Z,94535.13
2024-03-11T09:00:19.548Z,94533.53
2024-03-11T09:02:47.019Z,94540.00
2024-03-11T09:05:19.397Z,94537.53
2024-03-11T09:07:47.730Z,94530.88
2024-03-11T09:10:18.631Z,94534.72
2024-03-11T09:12:46.639Z,94537.44
2024-03-11T09:15:18.538Z,94529.88
2024-03-11T09:17:49.924Z,94536.78
2024-03-11T09:20:17.276Z,94541.66
2024-03-11T09:22:52.533Z,94535.25
2024-03-11T09:25:26.587Z,94526.47
2024-03-11T09:28:05.880Z,94530.81
2024-03-11T09:30:38.517Z,94521.19
2024-03-11T09:33:06.604Z,94521.66
2024-03-11T09:35:33.856Z,94520.66
2024-03-11T09:38:02.160Z,94518.38
2024-03-11T09:40:30.140Z,94514.47
2024-03-11T09:43:00.429Z,94524.31
2024-03-11T09:45:31.007Z,94520.00
2024-03-11T09:48:00.693Z,94515.97
2024-03-11T09:50:32.428Z,94520.56
2024-03-11T09:53:05.345Z,94514.97
2024-03-11T09:55:33.367Z,94511.44
2024-03-11T09:58:03.091Z,94513.25
2024-03-11T10:00:30.886Z,94516.59
2024-03-11T10:03:02.459Z,94510.28
2024-03-11T10:05:32.843Z,94508.88
2024-03-11T10:08:00.972Z,94493.16
2024-03-11T10:10:30.678Z,94510.72
2024-03-11T10:13:00.067Z,94513.97
2024-03-11T10:15:32.114Z,94509.59
2024-03-11T10:18:16.690Z,94512.09
2024-03-11T10:20:45.490Z,94515.59
2024-03-11T10:23:19.572Z,94518.25
2024-03-11T10:25:47.505Z,94517.59
2024-03-11T10:28:32.927Z,94515.09
2024-03-11T10:30:59.722Z,94512.63
2024-03-11T10:33:33.694Z,94521.00
2024-03-11T10:36:08.337Z,94515.56
2024-03-11T10:38:35.108Z,94516.97
2024-03-11T10:41:18.269Z,94518.34
2024-03-11T10:43:44.947Z,94526.50
2024-03-11T10:46:21.814Z,94526.59
2024-03-11T10:48:48.835Z,94531.44
2024-03-11T10:51:25.566Z,94521.78
2024-03-11T10:53:53.483Z,94530.44
2024-03-11T10:56:27.134Z,94530.19
2024-03-11T10:58:57.819Z,94533.44
2024-03-11T11:01:35.197Z,94521.31
2024-03-11T11:04:15.860Z,94523.09
2024-03-11T11:06:47.411Z,94516.81
2024-03-11T11:09:15.321Z,94512.81
2024-03-11T11:11:50.504Z,94521.00
2024-03-11T11:14:20.480Z,94513.56
2024-03-11T11:16:50.609Z,94509.56
2024-03-11T11:19:23.726Z,94506.53
2024-03-11T11:21:54.612Z,94513.75
2024-03-11T11:24:32.943Z,94515.16
2024-03-11T11:27:07.824Z,94511.03
2024-03-11T11:29:35.159Z,94513.72
2024-03-11T11:32:04.843Z,94510.75
2024-03-11T11:34:46.718Z,94526.31
2024-03-11T11:37:26.886Z,94515.50
2024-03-11T11:39:53.735Z,94511.19
2024-03-11T11:42:33.821Z,94503.38
2024-03-11T11:45:00.798Z,94511.44
2024-03-11T11:47:28.827Z,94509.25
2024-03-11T11:49:58.843Z,94507.84
2024-03-11T11:52:27.828Z,94486.91
2024-03-11T11:54:57.112Z,94486.66
2024-03-11T11:57:26.281Z,94506.56
2024-03-11T11:59:57.042Z,94501.66
2024-03-11T12:02:31.087Z,94507.41
2024-03-11T12:05:02.326Z,94512.72
2024-03-11T12:07:30.145Z,94506.53
2024-03-11T12:09:59.659Z,94518.94
2024-03-11T12:12:32.038Z,94519.22
2024-03-11T12:15:02.668Z,94521.47
2024-03-11T12:17:31.292Z,94511.78
2024-03-11T12:20:21.856Z,94505.88
2024-03-11T12:22:49.455Z,94515.13
2024-03-11T12:25:17.065Z,94512.31
2024-03-11T12:27:45.262Z,94514.16
2024-03-11T12:30:20.844Z,94498.34
2024-03-11T12:33:06.148Z,94509.28
2024-03-11T12:35:45.817Z,94501.75
2024-03-11T12:38:15.272Z,94510.84
2024-03-11T12:40:45.062Z,94509.19
2024-03-11T12:43:24.342Z,94513.53
2024-03-11T12:45:53.858Z,94509.78
2024-03-11T12:48:20.846Z,94508.81
2024-03-11T12:50:48.171Z,94503.44
2024-03-11T12:53:16.371Z,94501.56
2024-03-11T12:55:44.547Z,94502.78
2024-03-11T12:58:19.405Z,94511.19
2024-03-11T13:00:49.237Z,94510.34
2024-03-11T13:03:20.348Z,94505.78
2024-03-11T13:05:56.587Z,94508.75
2024-03-11T13:08:23.617Z,94512.91
2024-03-11T13:11:05.342Z,94505.59
2024-03-11T13:13:33.000Z,94499.34
2024-03-11T13:16:02.975Z,94499.63
2024-03-11T13:18:33.100Z,94508.38
2024-03-11T13:21:00.679Z,94505.72
2024-03-11T13:23:27.500Z,94501.00
2024-03-11T13:25:55.599Z,94512.56
2024-03-11T13:28:22.714Z,94504.03
2024-03-11T13:30:50.556Z,94511.44
2024-03-11T13:33:18.009Z,94500.22
2024-03-11T13:35:44.723Z,94501.31
2024-03-11T13:38:15.597Z,94506.66
2024-03-11T13:40:42.567Z,94507.28
2024-03-11T13:43:15.742Z,94510.31
2024-03-11T13:45:51.157Z,94514.25
2024-03-11T13:48:21.906Z,94516.03
2024-03-11T13:50:48.849Z,94510.31
2024-03-11T13:53:16.722Z,94522.72
2024-03-11T13:55:50.692Z,94509.34
2024-03-11T13:58:18.160Z,94511.53
2024-03-11T14:00:49.465Z,94516.38
2024-03-11T14:03:19.285Z,94513.97
2024-03-11T14:05:46.032Z,94512.31
2024-03-11T14:08:13.939Z,94503.34
2024-03-11T14:10:40.681Z,94509.19
2024-03-11T14:13:07.421Z,94503.97
2024-03-11T14:15:34.171Z,94504.84
2024-03-11T14:18:01.399Z,94496.28
2024-03-11T14:20:32.093Z,94503.50
2024-03-11T14:22:59.658Z,94512.53
2024-03-11T14:25:27.789Z,94507.66
2024-03-11T14:27:55.670Z,94500.81
2024-03-11T14:30:26.723Z,94506.72
2024-03-11T14:32:54.023Z,94509.56
2024-03-11T14:35:22.768Z,94508.59
2024-03-11T14:37:50.120Z,94516.22
2024-03-11T14:40:36.223Z,94512.16
2024-03-11T14:43:07.555Z,94507.06
2024-03-11T14:45:39.712Z,94511.25
2024-03-11T14:48:14.053Z,94513.38
2024-03-11T14:50:41.756Z,94506.47
2024-03-11T14:53:09.637Z,94492.34
2024-03-11T14:55:43.286Z,94509.22
2024-03-11T14:58:13.971Z,94517.72
2024-03-11T15:01:03.321Z,94520.59
2024-03-11T15:03:30.505Z,94512.00
2024-03-11T15:06:00.787Z,94526.69
2024-03-11T15:08:29.736Z,94527.78
2024-03-11T15:10:56.527Z,94533.47
2024-03-11T15:13:26.965Z,94532.31
2024-03-11T15:15:56.388Z,94531.75
2024-03-11T15:18:25.397Z,94526.09
2024-03-11T15:20:53.583Z,94534.38
2024-03-11T15:23:25.952Z,94530.44
2024-03-11T15:26:00.291Z,94531.41
2024-03-11T15:28:27.272Z,94531.13
2024-03-11T15:30:55.596Z,94537.47
2024-03-11T15:33:23.301Z,94524.75
2024-03-11T15:35:53.559Z,94534.84
2024-03-11T15:38:22.057Z,94531.88
2024-03-11T15:40:49.754Z,94534.25
2024-03-11T15:43:17.578Z,94537.81
2024-03-11T15:45:46.066Z,94539.50
2024-03-11T15:48:14.486Z,94532.06
2024-03-11T15:50:41.572Z,94548.22
2024-03-11T15:53:14.554Z,94553.03
2024-03-11T15:55:41.796Z,94549.63
2024-03-11T15:58:08.881Z,94566.44
2024-03-11T16:00:37.641Z,94564.59
2024-03-11T16:03:10.153Z,94574.16
2024-03-11T16:05:40.837Z,94565.13
2024-03-11T16:08:17.192Z,94559.69
2024-03-11T16:10:45.976Z,94576.63
2024-03-11T16:13:14.814Z,94557.06
2024-03-11T16:15:41.808Z,94584.63
2024-03-11T16:18:08.640Z,94575.66
2024-03-11T16:20:35.399Z,94586.97
2024-03-11T16:23:02.067Z,94591.00
2024-03-11T16:25:31.347Z,94592.69
2024-03-11T16:28:03.344Z,94601.88
2024-03-11T16:30:30.665Z,94591.63
2024-03-11T16:32:59.144Z,94602.06
2024-03-11T16:35:28.746Z,94606.28
2024-03-11T16:37:57.125Z,94607.06
2024-03-11T16:40:27.197Z,94607.06
2024-03-11T16:43:27.527Z,94612.47
2024-03-11T16:45:54.957Z,94610.72
2024-03-11T16:48:23.752Z,94622.44
2024-03-11T16:50:53.715Z,94624.13
2024-03-11T16:53:23.450Z,94623.41
2024-03-11T16:55:52.451Z,94627.34
2024-03-11T16:58:19.451Z,94625.97
2024-03-11T17:00:50.310Z,94629.31
2024-03-11T17:03:18.113Z,94638.88
2024-03-11T17:05:45.881Z,94641.91
2024-03-11T17:08:16.479Z,94649.97
2024-03-11T17:10:46.704Z,94638.09
2024-03-11T17:13:16.430Z,94643.22
2024-03-11T17:15:44.259Z,94661.88
2024-03-11T17:18:13.794Z,94658.97
2024-03-11T17:20:46.377Z,94664.97
2024-03-11T17:23:18.051Z,94663.28
2024-03-11T17:25:46.645Z,94680.00
2024-03-11T17:28:17.659Z,94674.41
2024-03-11T17:30:47.596Z,94683.50
2024-03-11T17:33:22.899Z,94687.59
2024-03-11T17:35:53.592Z,94681.56
2024-03-11T17:38:23.734Z,94687.31
2024-03-11T17:40:54.241Z,94690.56
2024-03-11T17:43:21.883Z,94694.19
2024-03-11T17:45:51.142Z,94693.41
2024-03-11T17:48:23.147Z,94693.41
2024-03-11T17:50:50.605Z,94697.19
2024-03-11T17:53:20.652Z,94698.94
2024-03-11T17:55:48.087Z,94706.53
2024-03-11T17:58:23.043Z,94704.25
2024-03-11T18:00:51.084Z,94710.63
2024-03-11T18:03:19.168Z,94706.47
2024-03-11T18:05:47.245Z,94710.41
2024-03-11T18:08:15.278Z,94718.38
2024-03-11T18:10:42.620Z,94720.09
2024-03-11T18:13:16.362Z,94715.63
2024-03-11T18:15:44.280Z,94724.72
2024-03-11T18:18:11.960Z,94727.38
2024-03-11T18:20:42.478Z,94732.44
2024-03-11T18:23:15.173Z,94731.41
2024-03-11T18:25:43.428Z,94743.97
2024-03-11T18:28:10.304Z,94744.03
2024-03-11T18:30:37.580Z,94736.22
2024-03-11T18:33:06.854Z,94734.66
2024-03-11T18:35:37.061Z,94750.78
2024-03-11T18:38:07.377Z,94757.16
2024-03-11T18:40:35.691Z,94756.69
2024-03-11T18:43:05.221Z,94742.22
2024-03-11T18:45:34.005Z,94766.53
2024-03-11T18:48:02.399Z,94760.03
2024-03-11T18:50:29.707Z,94771.94
2024-03-11T18:53:00.701Z,94755.88
2024-03-11T18:55:31.509Z,94772.88
2024-03-11T18:57:59.859Z,94778.16
2024-03-11T19:00:33.434Z,94768.91
2024-03-11T19:03:02.657Z,94776.66
2024-03-11T19:05:30.619Z,94790.66
2024-03-11T19:07:57.971Z,94775.94
2024-03-11T19:10:28.185Z,94799.16
2024-03-11T19:12:57.284Z,94794.94
2024-03-11T19:15:25.993Z,94798.69
2024-03-11T19:17:53.543Z,94802.69
2024-03-11T19:20:26.945Z,94805.38
2024-03-11T19:22:54.716Z,94813.41
2024-03-11T19:25:25.667Z,94809.47
2024-03-11T19:27:53.298Z,94817.66
2024-03-11T19:30:23.658Z,94816.88
2024-03-11T19:32:54.637Z,94825.91
2024-03-11T19:35:22.920Z,94826.97
2024-03-11T19:38:15.811Z,94825.16
2024-03-11T19:41:04.086Z,94833.94
2024-03-11T19:43:42.778Z,94829.94
2024-03-11T19:46:30.098Z,94839.47
2024-03-11T19:49:27.549Z,94837.72
2024-03-11T19:52:31.994Z,94851.16
2024-03-11T19:55:32.905Z,94850.91
2024-03-11T19:58:22.636Z,94860.22
2024-03-11T20:01:25.916Z,94870.25
2024-03-11T20:04:28.585Z,94870.25
2024-03-11T20:07:08.900Z,94866.84
2024-03-11T20:10:02.206Z,94872.66
2024-03-11T20:12:47.580Z,94868.44
2024-03-11T20:15:39.092Z,94879.56
2024-03-11T20:18:30.776Z,94873.47
2024-03-11T20:21:30.897Z,94867.41
2024-03-11T20:24:46.164Z,94874.81
2024-03-11T20:27:30.062Z,94885.94
2024-03-11T20:30:06.140Z,94884.31
2024-03-11T20:32:53.154Z,94882.75
2024-03-11T20:35:20.008Z,94883.28
2024-03-11T20:37:47.396Z,94890.16
2024-03-11T20:40:14.596Z,94892.03
2024-03-11T20:42:41.451Z,94887.25
2024-03-11T20:45:08.811Z,94890.19
2024-03-11T20:47:35.583Z,94899.41
2024-03-11T20:50:02.263Z,94896.25
2024-03-11T20:52:31.359Z,94899.69
2024-03-11T20:54:58.086Z,94906.31
2024-03-11T20:57:26.898Z,94901.28
2024-03-11T20:59:53.755Z,94904.72
2024-03-11T21:02:20.556Z,94906.84
2024-03-11T21:04:47.210Z,94911.31
2024-03-11T21:07:14.187Z,94886.72
2024-03-11T21:09:42.711Z,94904.97
2024-03-11T21:12:09.507Z,94909.47
2024-03-11T21:14:36.242Z,94908.41
2024-03-11T21:17:10.431Z,94922.41
2024-03-11T21:19:50.191Z,94910.50
2024-03-11T21:22:16.913Z,94917.63
2024-03-11T21:24:55.252Z,94918.16
2024-03-11T21:27:25.862Z,94924.22
2024-03-11T21:29:55.634Z,94922.13
2024-03-11T21:32:26.393Z,94915.22
2024-03-11T21:34:53.481Z,94930.22
2024-03-11T21:37:20.915Z,94935.00
2024-03-11T21:39:54.531Z,94948.97
2024-03-11T21:42:22.338Z,94939.19
2024-03-11T21:44:50.185Z,94948.94
2024-03-11T21:47:20.401Z,94945.19
2024-03-11T21:49:47.157Z,94937.53
2024-03-11T21:52:14.024Z,94952.59
2024-03-11T21:54:42.050Z,94949.44
2024-03-11T21:57:09.215Z,94956.84
2024-03-11T21:59:36.533Z,94955.50
2024-03-11T22:02:03.335Z,94955.81
2024-03-11T22:04:30.039Z,94950.28
2024-03-11T22:06:56.971Z,94959.78
2024-03-11T22:09:24.230Z,94959.78
2024-03-11T22:11:51.139Z,94967.97
2024-03-11T22:14:19.552Z,94954.50
2024-03-11T22:16:46.400Z,94969.03
2024-03-11T22:19:13.192Z,94968.25
2024-03-11T22:21:40.945Z,94976.19
2024-03-11T22:24:12.299Z,94977.47
2024-03-11T22:26:46.643Z,94979.09
2024-03-11T22:29:13.466Z,94976.44
2024-03-11T22:31:40.891Z,94981.97
2024-03-11T22:34:13.189Z,94970.66
2024-03-11T22:36:42.658Z,94978.84
2024-03-11T22:39:10.235Z,94973.50
2024-03-11T22:41:40.712Z,94976.19
2024-03-11T22:44:08.989Z,94972.47
2024-03-11T22:46:37.150Z,94978.25
2024-03-11T22:49:09.208Z,94985.94
2024-03-11T22:51:41.415Z,94992.56
2024-03-11T22:54:09.004Z,94978.00
2024-03-11T22:56:36.758Z,94989.09
2024-03-11T22:59:03.528Z,94983.53
2024-03-11T23:01:35.410Z,94988.31
2024-03-11T23:04:06.168Z,94996.56
2024-03-11T23:06:36.776Z,94989.16
2024-03-11T23:09:05.037Z,94997.81
2024-03-11T23:11:35.055Z,94994.59
2024-03-11T23:14:01.808Z,94995.69
2024-03-11T23:16:28.491Z,94999.38
2024-03-11T23:18:55.178Z,94994.31
2024-03-11T23:21:21.944Z,95000.94
2024-03-11T23:23:50.667Z,94993.81
2024-03-11T23:26:20.402Z,95002.78
2024-03-11T23:28:47.464Z,95005.97
2024-03-11T23:31:15.130Z,95002.28
2024-03-11T23:33:42.071Z,95006.72
2024-03-11T23:36:10.923Z,95019.09
2024-03-11T23:38:41.001Z,95020.22
2024-03-11T23:41:08.395Z,95014.63
2024-03-11T23:43:35.198Z,95021.44
2024-03-11T23:46:02.781Z,95021.41
2024-03-11T23:48:29.974Z,95032.25
2024-03-11T23:50:57.137Z,95029.34
2024-03-11T23:53:27.676Z,95035.66
2024-03-11T23:56:00.152Z,95035.97
2024-03-11T23:58:29.469Z,95039.88
